createdAt,value
2023-12-09T00:00:59.865Z,97775.00
2023-12-09T00:03:29.282Z,97777.00
2023-12-09T00:05:57.767Z,97780.00
2023-12-09T00:08:25.561Z,97776.00
2023-12-09T00:10:53.650Z,97768.00
2023-12-09T00:13:21.804Z,97765.00
2023-12-09T00:15:49.963Z,97768.00
2023-12-09T00:18:18.182Z,97774.00
2023-12-09T00:20:47.768Z,97767.00
2023-12-09T00:23:15.982Z,97769.00
2023-12-09T00:25:44.346Z,97772.00
2023-12-09T00:28:12.487Z,97762.00
2023-12-09T00:30:40.389Z,97767.00
2023-12-09T00:33:08.644Z,97758.00
2023-12-09T00:35:36.419Z,97756.00
2023-12-09T00:38:05.601Z,97755.00
2023-12-09T00:40:33.469Z,97757.00
2023-12-09T00:43:01.236Z,97761.00
2023-12-09T00:45:29.503Z,97770.00
2023-12-09T00:47:58.024Z,97766.00
2023-12-09T00:50:25.927Z,97770.00
2023-12-09T00:52:53.810Z,97771.00
2023-12-09T00:55:22.965Z,97771.00
2023-12-09T00:57:50.777Z,97776.00
2023-12-09T01:00:19.717Z,97773.00
2023-12-09T01:02:47.595Z,97782.00
2023-12-09T01:05:15.425Z,97781.00
2023-12-09T01:07:43.797Z,97788.00
2023-12-09T01:10:11.845Z,97785.00
2023-12-09T01:12:41.173Z,97790.00
2023-12-09T01:15:09.875Z,97795.00
2023-12-09T01:17:37.730Z,97787.00
2023-12-09T01:20:07.005Z,97791.00
2023-12-09T01:22:34.782Z,97778.00
2023-12-09T01:25:02.862Z,97788.00
2023-12-09T01:27:31.003Z,97795.00
2023-12-09T01:30:00.568Z,97800.00
2023-12-09T01:32:28.920Z,97794.00
2023-12-09T01:34:57.835Z,97798.00
2023-12-09T01:37:25.702Z,97799.00
2023-12-09T01:39:53.573Z,97802.00
2023-12-09T01:42:21.506Z,97794.00
2023-12-09T01:44:49.375Z,97796.00
2023-12-09T01:47:18.730Z,97801.00
2023-12-09T01:49:46.889Z,97795.00
2023-12-09T01:52:15.494Z,97797.00
2023-12-09T01:54:43.468Z,97805.00
2023-12-09T01:57:12.436Z,97800.00
2023-12-09T01:59:40.272Z,97803.00
2023-12-09T02:02:09.423Z,97800.00
2023-12-09T02:04:38.657Z,97801.00
2023-12-09T02:07:06.490Z,97802.00
2023-12-09T02:09:35.043Z,97808.00
2023-12-09T02:12:08.099Z,97815.00
2023-12-09T02:14:40.965Z,97812.00
2023-12-09T02:17:15.049Z,97815.00
2023-12-09T02:19:44.994Z,97813.00
2023-12-09T02:22:12.843Z,97803.00
2023-12-09T02:24:42.278Z,97803.00
2023-12-09T02:27:13.580Z,97811.00
2023-12-09T02:29:49.152Z,97819.00
2023-12-09T02:32:19.766Z,97822.00
2023-12-09T02:34:50.116Z,97814.00
2023-12-09T02:37:18.959Z,97821.00
2023-12-09T02:39:48.634Z,97817.00
2023-12-09T02:42:17.151Z,97817.00
2023-12-09T02:44:45.514Z,97818.00
2023-12-09T02:47:15.089Z,97823.00
2023-12-09T02:49:43.677Z,97829.00
2023-12-09T02:52:11.936Z,97847.00
2023-12-09T02:54:39.755Z,97838.00
2023-12-09T02:57:09.144Z,97836.00
2023-12-09T02:59:36.927Z,97838.00
2023-12-09T03:02:04.993Z,97837.00
2023-12-09T03:04:33.304Z,97839.00
2023-12-09T03:07:01.091Z,97844.00
2023-12-09T03:09:29.250Z,97841.00
2023-12-09T03:11:57.112Z,97839.00
2023-12-09T03:14:26.279Z,97836.00
2023-12-09T03:16:54.039Z,97838.00
2023-12-09T03:19:22.206Z,97838.00
2023-12-09T03:21:50.121Z,97839.00
2023-12-09T03:24:18.095Z,97837.00
2023-12-09T03:26:45.971Z,97836.00
2023-12-09T03:29:13.836Z,97843.00
2023-12-09T03:31:43.416Z,97844.00
2023-12-09T03:34:11.499Z,97844.00
2023-12-09T03:36:39.740Z,97840.00
2023-12-09T03:39:08.541Z,97831.00
2023-12-09T03:41:36.405Z,97824.00
2023-12-09T03:44:04.821Z,97810.00
2023-12-09T03:46:32.572Z,97810.00
2023-12-09T03:49:01.880Z,97809.00
2023-12-09T03:51:29.803Z,97815.00
2023-12-09T03:53:57.949Z,97816.00
2023-12-09T03:56:25.881Z,97802.00
2023-12-09T03:58:54.338Z,97792.00
2023-12-09T04:01:24.026Z,97808.00
2023-12-09T04:03:51.831Z,97794.00
2023-12-09T04:06:23.315Z,97791.00
2023-12-09T04:08:51.077Z,97789.00
2023-12-09T04:11:18.825Z,97786.00
2023-12-09T04:13:46.739Z,97787.00
2023-12-09T04:16:14.536Z,97786.00
2023-12-09T04:18:42.526Z,97781.00
2023-12-09T04:21:10.380Z,97785.00
2023-12-09T04:23:39.541Z,97782.00
2023-12-09T04:26:07.440Z,97785.00
2023-12-09T04:28:35.322Z,97783.00
2023-12-09T04:31:03.056Z,97790.00
2023-12-09T04:33:31.206Z,97789.00
2023-12-09T04:35:59.090Z,97786.00
2023-12-09T04:38:26.927Z,97785.00
2023-12-09T04:40:56.672Z,97790.00
2023-12-09T04:43:24.473Z,97798.00
2023-12-09T04:45:53.434Z,97789.00
2023-12-09T04:48:21.629Z,97784.00
2023-12-09T04:50:49.793Z,97791.00
2023-12-09T04:53:17.681Z,97786.00
2023-12-09T04:55:45.624Z,97798.00
2023-12-09T04:58:15.898Z,97805.00
2023-12-09T05:00:45.376Z,97802.00
2023-12-09T05:03:13.240Z,97798.00
2023-12-09T05:05:41.119Z,97790.00
2023-12-09T05:08:09.391Z,97791.00
2023-12-09T05:10:37.360Z,97801.00
2023-12-09T05:13:05.145Z,97798.00
2023-12-09T05:15:34.759Z,97802.00
2023-12-09T05:18:03.038Z,97799.00
2023-12-09T05:20:31.371Z,97797.00
2023-12-09T05:22:59.110Z,97790.00
2023-12-09T05:25:26.908Z,97788.00
2023-12-09T05:27:54.742Z,97792.00
2023-12-09T05:30:23.829Z,97792.00
2023-12-09T05:32:53.280Z,97797.00
2023-12-09T05:35:21.250Z,97788.00
2023-12-09T05:37:49.119Z,97789.00
2023-12-09T05:40:17.260Z,97802.00
2023-12-09T05:42:45.090Z,97795.00
2023-12-09T05:45:13.407Z,97792.00
2023-12-09T05:47:41.309Z,97787.00
2023-12-09T05:50:11.935Z,97794.00
2023-12-09T05:52:39.739Z,97791.00
2023-12-09T05:55:08.107Z,97799.00
2023-12-09T05:57:35.962Z,97787.00
2023-12-09T06:00:04.513Z,97786.00
2023-12-09T06:02:32.731Z,97785.00
2023-12-09T06:05:00.508Z,97787.00
2023-12-09T06:07:29.789Z,97779.00
2023-12-09T06:09:57.930Z,97779.00
2023-12-09T06:12:26.091Z,97780.00
2023-12-09T06:14:54.614Z,97780.00
2023-12-09T06:17:22.629Z,97786.00
2023-12-09T06:19:50.760Z,97788.00
2023-12-09T06:22:18.573Z,97801.00
2023-12-09T06:24:47.747Z,97802.00
2023-12-09T06:27:15.959Z,97809.00
2023-12-09T06:29:46.119Z,97811.00
2023-12-09T06:32:15.000Z,97808.00
2023-12-09T06:34:42.919Z,97811.00
2023-12-09T06:37:11.061Z,97812.00
2023-12-09T06:39:38.875Z,97806.00
2023-12-09T06:42:08.183Z,97805.00
2023-12-09T06:44:35.990Z,97802.00
2023-12-09T06:47:03.951Z,97805.00
2023-12-09T06:49:32.264Z,97805.00
2023-12-09T06:52:00.791Z,97802.00
2023-12-09T06:54:28.635Z,97801.00
2023-12-09T06:56:57.994Z,97798.00
2023-12-09T06:59:28.263Z,97784.00
2023-12-09T07:01:58.411Z,97790.00
2023-12-09T07:04:26.761Z,97785.00
2023-12-09T07:06:54.646Z,97783.00
2023-12-09T07:09:22.520Z,97786.00
2023-12-09T07:12:01.452Z,97776.00
2023-12-09T07:14:32.473Z,97786.00
2023-12-09T07:17:00.263Z,97793.00
2023-12-09T07:19:28.090Z,97790.00
2023-12-09T07:21:56.178Z,97786.00
2023-12-09T07:24:24.485Z,97783.00
2023-12-09T07:26:52.316Z,97777.00
2023-12-09T07:29:20.904Z,97778.00
2023-12-09T07:31:50.348Z,97786.00
2023-12-09T07:34:20.063Z,97780.00
2023-12-09T07:36:48.290Z,97786.00
2023-12-09T07:39:16.060Z,97779.00
2023-12-09T07:41:44.994Z,97786.00
2023-12-09T07:44:12.744Z,97777.00
2023-12-09T07:46:40.623Z,97774.00
2023-12-09T07:49:10.549Z,97773.00
2023-12-09T07:51:38.497Z,97769.00
2023-12-09T07:54:09.225Z,97757.00
2023-12-09T07:56:38.255Z,97757.00
2023-12-09T07:59:06.056Z,97759.00
2023-12-09T08:01:34.095Z,97767.00
2023-12-09T08:04:02.695Z,97758.00
2023-12-09T08:06:32.287Z,97752.00
2023-12-09T08:09:00.307Z,97754.00
2023-12-09T08:11:28.209Z,97749.00
2023-12-09T08:13:56.048Z,97746.00
2023-12-09T08:16:23.869Z,97754.00
2023-12-09T08:18:51.830Z,97766.00
2023-12-09T08:21:19.826Z,97768.00
2023-12-09T08:23:49.147Z,97766.00
2023-12-09T08:26:20.362Z,97768.00
2023-12-09T08:28:48.412Z,97761.00
2023-12-09T08:31:16.301Z,97756.00
2023-12-09T08:33:44.962Z,97765.00
2023-12-09T08:36:13.209Z,97775.00
2023-12-09T08:38:41.370Z,97768.00
2023-12-09T08:41:10.770Z,97758.00
2023-12-09T08:43:38.546Z,97754.00
2023-12-09T08:46:06.643Z,97745.00
2023-12-09T08:48:34.807Z,97752.00
2023-12-09T08:51:02.928Z,97737.00
2023-12-09T08:53:30.884Z,97741.00
2023-12-09T08:55:58.903Z,97727.00
2023-12-09T08:58:28.157Z,97732.00
2023-12-09T09:00:56.218Z,97728.00
2023-12-09T09:03:24.424Z,97733.00
2023-12-09T09:05:53.188Z,97731.00
2023-12-09T09:08:21.198Z,97746.00
2023-12-09T09:10:49.849Z,97746.00
2023-12-09T09:13:17.899Z,97746.00
2023-12-09T09:15:47.340Z,97739.00
2023-12-09T09:18:15.754Z,97745.00
2023-12-09T09:20:44.162Z,97735.00
2023-12-09T09:23:12.656Z,97737.00
2023-12-09T09:25:40.519Z,97720.00
2023-12-09T09:28:08.569Z,97719.00
2023-12-09T09:30:36.624Z,97700.00
2023-12-09T09:33:07.584Z,97704.00
2023-12-09T09:35:35.780Z,97706.00
2023-12-09T09:38:03.582Z,97696.00
2023-12-09T09:40:31.410Z,97690.00
2023-12-09T09:43:02.125Z,97676.00
2023-12-09T09:45:32.317Z,97684.00
2023-12-09T09:48:07.179Z,97677.00
2023-12-09T09:50:40.720Z,97673.00
2023-12-09T09:53:10.681Z,97664.00
2023-12-09T09:55:42.736Z,97660.00
2023-12-09T09:58:10.853Z,97667.00
2023-12-09T10:00:40.079Z,97654.00
2023-12-09T10:03:10.004Z,97653.00
2023-12-09T10:05:38.388Z,97647.00
2023-12-09T10:08:06.584Z,97642.00
2023-12-09T10:10:35.803Z,97628.00
2023-12-09T10:13:03.683Z,97624.00
2023-12-09T10:15:33.161Z,97608.00
2023-12-09T10:18:04.879Z,97615.00
2023-12-09T10:20:37.135Z,97614.00
2023-12-09T10:23:05.457Z,97618.00
2023-12-09T10:25:33.736Z,97621.00
2023-12-09T10:28:11.917Z,97614.00
2023-12-09T10:30:40.233Z,97622.00
2023-12-09T10:33:08.383Z,97619.00
2023-12-09T10:35:37.978Z,97614.00
2023-12-09T10:38:06.777Z,97612.00
2023-12-09T10:40:35.116Z,97608.00
2023-12-09T10:43:04.253Z,97610.00
2023-12-09T10:45:32.738Z,97605.00
2023-12-09T10:48:01.151Z,97599.00
2023-12-09T10:50:29.630Z,97602.00
2023-12-09T10:52:59.169Z,97610.00
2023-12-09T10:55:27.032Z,97608.00
2023-12-09T10:57:56.296Z,97607.00
2023-12-09T11:00:26.497Z,97607.00
2023-12-09T11:02:55.113Z,97607.00
2023-12-09T11:05:23.321Z,97612.00
2023-12-09T11:07:52.254Z,97614.00
2023-12-09T11:10:22.457Z,97607.00
2023-12-09T11:12:50.510Z,97598.00
2023-12-09T11:15:24.559Z,97601.00
2023-12-09T11:17:55.125Z,97588.00
2023-12-09T11:20:24.074Z,97578.00
2023-12-09T11:22:51.931Z,97570.00
2023-12-09T11:25:27.103Z,97561.00
2023-12-09T11:27:55.991Z,97553.00
2023-12-09T11:30:31.877Z,97560.00
2023-12-09T11:33:00.239Z,97556.00
2023-12-09T11:35:29.202Z,97537.00
2023-12-09T11:37:59.795Z,97539.00
2023-12-09T11:40:32.132Z,97534.00
2023-12-09T11:43:01.214Z,97538.00
2023-12-09T11:45:29.777Z,97526.00
2023-12-09T11:47:58.468Z,97527.00
2023-12-09T11:50:28.908Z,97524.00
2023-12-09T11:52:56.810Z,97513.00
2023-12-09T11:55:24.795Z,97511.00
2023-12-09T11:57:54.535Z,97496.00
2023-12-09T12:00:22.863Z,97484.00
2023-12-09T12:02:50.940Z,97471.00
2023-12-09T12:05:19.061Z,97466.00
2023-12-09T12:07:47.145Z,97448.00
2023-12-09T12:10:16.308Z,97439.00
2023-12-09T12:12:45.467Z,97428.00
2023-12-09T12:15:15.339Z,97419.00
2023-12-09T12:17:43.889Z,97423.00
2023-12-09T12:20:14.053Z,97423.00
2023-12-09T12:22:43.358Z,97419.00
2023-12-09T12:25:11.844Z,97420.00
2023-12-09T12:27:44.560Z,97412.00
2023-12-09T12:30:15.658Z,97410.00
2023-12-09T12:32:44.409Z,97413.00
2023-12-09T12:35:13.040Z,97390.00
2023-12-09T12:37:41.912Z,97385.00
2023-12-09T12:40:11.475Z,97373.00
2023-12-09T12:42:39.645Z,97372.00
2023-12-09T12:45:17.778Z,97360.00
2023-12-09T12:47:47.288Z,97354.00
2023-12-09T12:50:15.924Z,97349.00
2023-12-09T12:52:45.736Z,97351.00
2023-12-09T12:55:13.872Z,97340.00
2023-12-09T12:57:41.955Z,97326.00
2023-12-09T13:00:13.152Z,97324.00
2023-12-09T13:02:41.191Z,97319.00
2023-12-09T13:05:11.049Z,97306.00
2023-12-09T13:07:40.046Z,97301.00
2023-12-09T13:10:09.253Z,97293.00
2023-12-09T13:12:37.445Z,97304.00
2023-12-09T13:15:06.284Z,97299.00
2023-12-09T13:17:34.253Z,97295.00
2023-12-09T13:20:02.134Z,97286.00
2023-12-09T13:22:31.684Z,97288.00
2023-12-09T13:24:59.896Z,97273.00
2023-12-09T13:27:27.767Z,97267.00
2023-12-09T13:29:55.845Z,97264.00
2023-12-09T13:32:23.700Z,97278.00
2023-12-09T13:34:51.741Z,97267.00
2023-12-09T13:37:19.725Z,97261.00
2023-12-09T13:39:49.452Z,97245.00
2023-12-09T13:42:17.401Z,97241.00
2023-12-09T13:44:45.379Z,97232.00
2023-12-09T13:47:13.534Z,97231.00
2023-12-09T13:49:43.023Z,97224.00
2023-12-09T13:52:11.339Z,97220.00
2023-12-09T13:54:39.996Z,97231.00
2023-12-09T13:57:10.791Z,97222.00
2023-12-09T13:59:39.130Z,97217.00
2023-12-09T14:02:08.877Z,97217.00
2023-12-09T14:04:37.542Z,97212.00
2023-12-09T14:07:06.158Z,97218.00
2023-12-09T14:09:34.311Z,97221.00
2023-12-09T14:12:02.497Z,97223.00
2023-12-09T14:14:32.695Z,97209.00
2023-12-09T14:17:00.924Z,97198.00
2023-12-09T14:19:29.358Z,97191.00
2023-12-09T14:21:57.613Z,97182.00
2023-12-09T14:24:25.972Z,97170.00
2023-12-09T14:26:54.070Z,97171.00
2023-12-09T14:29:22.406Z,97160.00
2023-12-09T14:31:51.712Z,97167.00
2023-12-09T14:34:19.810Z,97158.00
2023-12-09T14:36:47.870Z,97154.00
2023-12-09T14:39:17.308Z,97155.00
2023-12-09T14:41:45.503Z,97140.00
2023-12-09T14:44:13.252Z,97128.00
2023-12-09T14:46:41.100Z,97130.00
2023-12-09T14:49:10.465Z,97123.00
2023-12-09T14:51:43.513Z,97107.00
2023-12-09T14:54:16.306Z,97115.00
2023-12-09T14:56:46.727Z,97104.00
2023-12-09T14:59:14.993Z,97077.00
2023-12-09T15:01:43.092Z,97049.00
2023-12-09T15:04:12.825Z,97039.00
2023-12-09T15:06:40.882Z,97040.00
2023-12-09T15:09:11.514Z,97032.00
2023-12-09T15:11:39.438Z,97020.00
2023-12-09T15:14:07.628Z,97007.00
2023-12-09T15:16:36.406Z,97009.00
2023-12-09T15:19:04.928Z,97016.00
2023-12-09T15:21:34.418Z,97011.00
2023-12-09T15:24:02.644Z,97007.00
2023-12-09T15:26:30.597Z,97007.00
2023-12-09T15:28:59.484Z,97000.00
2023-12-09T15:31:27.640Z,96992.00
2023-12-09T15:33:55.689Z,97000.00
2023-12-09T15:36:24.209Z,96984.00
2023-12-09T15:38:53.516Z,96974.00
2023-12-09T15:41:21.460Z,96974.00
2023-12-09T15:43:49.422Z,96967.00
2023-12-09T15:46:17.445Z,96966.00
2023-12-09T15:48:47.003Z,96970.00
2023-12-09T15:51:15.136Z,96959.00
2023-12-09T15:53:43.237Z,96964.00
2023-12-09T15:56:13.843Z,96952.00
2023-12-09T15:58:41.857Z,96951.00
2023-12-09T16:01:09.791Z,96955.00
2023-12-09T16:03:38.095Z,96950.00
2023-12-09T16:06:07.933Z,96948.00
2023-12-09T16:08:35.923Z,96940.00
2023-12-09T16:11:04.592Z,96941.00
2023-12-09T16:13:34.920Z,96938.00
2023-12-09T16:16:02.774Z,96931.00
2023-12-09T16:18:31.860Z,96927.00
2023-12-09T16:21:02.055Z,96914.00
2023-12-09T16:23:31.191Z,96923.00
2023-12-09T16:26:01.158Z,96926.00
2023-12-09T16:28:29.193Z,96926.00
2023-12-09T16:30:58.485Z,96929.00
2023-12-09T16:33:26.498Z,96919.00
2023-12-09T16:35:54.506Z,96907.00
2023-12-09T16:38:22.514Z,96894.00
2023-12-09T16:40:50.439Z,96876.00
2023-12-09T16:43:18.414Z,96851.00
2023-12-09T16:45:46.611Z,96846.00
2023-12-09T16:48:16.320Z,96833.00
2023-12-09T16:50:44.308Z,96841.00
2023-12-09T16:53:12.237Z,96834.00
2023-12-09T16:55:40.126Z,96833.00
2023-12-09T16:58:08.492Z,96827.00
2023-12-09T17:00:36.689Z,96821.00
2023-12-09T17:03:05.065Z,96818.00
2023-12-09T17:05:34.441Z,96818.00
2023-12-09T17:08:02.390Z,96794.00
2023-12-09T17:10:30.225Z,96794.00
2023-12-09T17:12:58.290Z,96775.00
2023-12-09T17:15:26.280Z,96769.00
2023-12-09T17:17:54.342Z,96757.00
2023-12-09T17:20:22.466Z,96756.00
2023-12-09T17:22:52.230Z,96732.00
2023-12-09T17:25:20.744Z,96729.00
2023-12-09T17:27:51.742Z,96726.00
2023-12-09T17:30:19.950Z,96724.00
2023-12-09T17:32:48.048Z,96720.00
2023-12-09T17:35:16.054Z,96712.00
2023-12-09T17:37:44.557Z,96707.00
2023-12-09T17:40:15.645Z,96700.00
2023-12-09T17:42:43.765Z,96680.00
2023-12-09T17:45:12.056Z,96676.00
2023-12-09T17:47:39.888Z,96663.00
2023-12-09T17:50:08.254Z,96652.00
2023-12-09T17:52:37.693Z,96655.00
2023-12-09T17:55:06.607Z,96637.00
2023-12-09T17:57:36.112Z,96628.00
2023-12-09T18:00:03.807Z,96614.00
2023-12-09T18:02:31.738Z,96597.00
2023-12-09T18:04:59.969Z,96593.00
2023-12-09T18:07:28.236Z,96587.00
2023-12-09T18:09:56.448Z,96573.00
2023-12-09T18:12:24.666Z,96576.00
2023-12-09T18:14:53.970Z,96574.00
2023-12-09T18:17:22.011Z,96570.00
2023-12-09T18:19:50.293Z,96568.00
2023-12-09T18:22:21.505Z,96561.00
2023-12-09T18:24:50.342Z,96552.00
2023-12-09T18:27:18.398Z,96559.00
2023-12-09T18:29:46.623Z,96540.00
2023-12-09T18:32:16.903Z,96538.00
2023-12-09T18:34:45.066Z,96535.00
2023-12-09T18:37:13.411Z,96523.00
2023-12-09T18:39:41.630Z,96508.00
2023-12-09T18:42:10.510Z,96515.00
2023-12-09T18:44:38.442Z,96503.00
2023-12-09T18:47:06.724Z,96508.00
2023-12-09T18:49:36.075Z,96505.00
2023-12-09T18:52:04.517Z,96491.00
2023-12-09T18:54:34.993Z,96484.00
2023-12-09T18:57:03.322Z,96468.00
2023-12-09T18:59:31.368Z,96440.00
2023-12-09T19:02:09.041Z,96447.00
2023-12-09T19:04:45.174Z,96448.00
2023-12-09T19:07:13.521Z,96457.00
2023-12-09T19:09:43.245Z,96446.00
2023-12-09T19:12:12.343Z,96450.00
2023-12-09T19:14:40.244Z,96454.00
2023-12-09T19:17:08.082Z,96459.00
2023-12-09T19:19:36.085Z,96466.00
2023-12-09T19:22:06.185Z,96458.00
2023-12-09T19:24:34.211Z,96466.00
2023-12-09T19:27:02.674Z,96462.00
2023-12-09T19:29:30.505Z,96454.00
2023-12-09T19:31:58.511Z,96443.00
2023-12-09T19:34:26.750Z,96438.00
2023-12-09T19:36:54.895Z,96427.00
2023-12-09T19:39:24.294Z,96421.00
2023-12-09T19:42:35.130Z,96406.00
2023-12-09T19:45:06.255Z,96410.00
2023-12-09T19:47:35.066Z,96395.00
2023-12-09T19:50:03.034Z,96391.00
2023-12-09T19:52:31.292Z,96389.00
2023-12-09T19:55:01.038Z,96371.00
2023-12-09T19:57:29.206Z,96360.00
2023-12-09T19:59:57.001Z,96347.00
2023-12-09T20:02:25.030Z,96348.00
2023-12-09T20:04:53.137Z,96352.00
2023-12-09T20:07:21.138Z,96353.00
2023-12-09T20:09:48.903Z,96373.00
2023-12-09T20:12:18.418Z,96366.00
2023-12-09T20:14:46.755Z,96362.00
2023-12-09T20:17:15.168Z,96337.00
2023-12-09T20:19:43.007Z,96326.00
2023-12-09T20:22:12.928Z,96342.00
2023-12-09T20:24:41.492Z,96334.00
2023-12-09T20:27:09.379Z,96315.00
2023-12-09T20:29:38.832Z,96310.00
2023-12-09T20:32:07.726Z,96299.00
2023-12-09T20:34:35.564Z,96293.00
2023-12-09T20:37:03.552Z,96289.00
2023-12-09T20:39:31.578Z,96302.00
2023-12-09T20:41:59.444Z,96304.00
2023-12-09T20:44:27.429Z,96299.00
2023-12-09T20:46:56.864Z,96292.00
2023-12-09T20:49:24.754Z,96293.00
2023-12-09T20:51:53.330Z,96299.00
2023-12-09T20:54:21.203Z,96296.00
2023-12-09T20:56:49.227Z,96305.00
2023-12-09T20:59:16.985Z,96308.00
2023-12-09T21:01:46.034Z,96327.00
2023-12-09T21:04:15.502Z,96339.00
2023-12-09T21:06:43.813Z,96348.00
2023-12-09T21:09:11.796Z,96340.00
2023-12-09T21:11:39.842Z,96340.00
2023-12-09T21:14:08.331Z,96333.00
2023-12-09T21:16:37.272Z,96329.00
2023-12-09T21:19:05.481Z,96321.00
2023-12-09T21:21:35.164Z,96326.00
2023-12-09T21:24:03.478Z,96301.00
2023-12-09T21:26:31.374Z,96314.00
2023-12-09T21:28:59.192Z,96313.00
2023-12-09T21:31:27.666Z,96320.00
2023-12-09T21:33:56.060Z,96316.00
2023-12-09T21:36:24.242Z,96311.00
2023-12-09T21:38:53.516Z,96320.00
2023-12-09T21:41:22.631Z,96327.00
2023-12-09T21:43:51.710Z,96330.00
2023-12-09T21:46:22.840Z,96311.00
2023-12-09T21:48:52.055Z,96306.00
2023-12-09T21:51:21.815Z,96307.00
2023-12-09T21:53:50.123Z,96304.00
2023-12-09T21:56:23.648Z,96309.00
2023-12-09T21:58:52.681Z,96313.00
2023-12-09T22:01:21.746Z,96316.00
2023-12-09T22:03:50.493Z,96313.00
2023-12-09T22:06:18.387Z,96316.00
2023-12-09T22:08:46.413Z,96311.00
2023-12-09T22:11:14.780Z,96329.00
2023-12-09T22:13:44.114Z,96327.00
2023-12-09T22:16:12.289Z,96333.00
2023-12-09T22:18:40.302Z,96335.00
2023-12-09T22:21:08.526Z,96340.00
2023-12-09T22:23:36.446Z,96331.00
2023-12-09T22:26:04.283Z,96331.00
2023-12-09T22:28:33.111Z,96353.00
2023-12-09T22:31:04.020Z,96349.00
2023-12-09T22:33:32.220Z,96332.00
2023-12-09T22:36:00.309Z,96363.00
2023-12-09T22:38:28.592Z,96368.00
2023-12-09T22:40:56.492Z,96370.00
2023-12-09T22:43:24.371Z,96383.00
2023-12-09T22:45:52.569Z,96380.00
2023-12-09T22:48:22.068Z,96386.00
2023-12-09T22:50:51.967Z,96385.00
2023-12-09T22:53:21.126Z,96385.00
2023-12-09T22:55:49.352Z,96386.00
2023-12-09T22:58:17.213Z,96395.00
2023-12-09T23:00:45.385Z,96393.00
2023-12-09T23:03:13.397Z,96402.00
2023-12-09T23:05:42.810Z,96396.00
2023-12-09T23:08:10.618Z,96399.00
2023-12-09T23:10:38.424Z,96404.00
2023-12-09T23:13:06.924Z,96403.00
2023-12-09T23:15:34.815Z,96407.00
2023-12-09T23:18:02.827Z,96403.00
2023-12-09T23:20:30.728Z,96405.00
2023-12-09T23:22:59.912Z,96409.00
2023-12-09T23:25:28.104Z,96407.00
2023-12-09T23:27:56.953Z,96410.00
2023-12-09T23:30:24.783Z,96409.00
2023-12-09T23:32:52.698Z,96419.00
2023-12-09T23:35:20.638Z,96428.00
2023-12-09T23:37:48.795Z,96450.00
2023-12-09T23:40:18.461Z,96441.00
2023-12-09T23:42:47.087Z,96440.00
2023-12-09T23:45:15.147Z,96443.00
2023-12-09T23:47:44.168Z,96429.00
2023-12-09T23:50:12.398Z,96423.00
2023-12-09T23:52:40.277Z,96413.00
2023-12-09T23:55:08.689Z,96422.00
2023-12-09T23:57:38.222Z,96417.00
